sensor_id;sensor_type;location;lat;lon;timestamp;temperature;humidity
23347;DHT22;36852;45.466;11.066;2023-02-21T00:01:46;11.70;99.90
23347;DHT22;36852;45.466;11.066;2023-02-21T00:04:33;11.60;99.90
23347;DHT22;36852;45.466;11.066;2023-02-21T00:07:20;11.60;99.90
23347;DHT22;36852;45.466;11.066;2023-02-21T00:10:08;11.70;99.90
23347;DHT22;36852;45.466;11.066;2023-02-21T00:15:55;11.70;99.90
23347;DHT22;36852;45.466;11.066;2023-02-21T00:18:42;11.60;99.90
23347;DHT22;36852;45.466;11.066;2023-02-21T00:21:29;11.60;99.90
23347;DHT22;36852;45.466;11.066;2023-02-21T00:24:17;11.60;99.90
23347;DHT22;36852;45.466;11.066;2023-02-21T00:27:04;11.60;99.90
23347;DHT22;36852;45.466;11.066;2023-02-21T00:29:51;11.50;99.90
23347;DHT22;36852;45.466;11.066;2023-02-21T00:32:37;11.50;99.90
23347;DHT22;36852;45.466;11.066;2023-02-21T00:35:23;11.50;99.90
23347;DHT22;36852;45.466;11.066;2023-02-21T00:38:10;11.50;99.90
23347;DHT22;36852;45.466;11.066;2023-02-21T00:40:56;11.40;99.90
23347;DHT22;36852;45.466;11.066;2023-02-21T00:43:43;11.40;99.90
23347;DHT22;36852;45.466;11.066;2023-02-21T00:46:29;11.40;99.90
23347;DHT22;36852;45.466;11.066;2023-02-21T00:49:15;11.40;99.90
23347;DHT22;36852;45.466;11.066;2023-02-21T00:52:01;11.30;99.90
23347;DHT22;36852;45.466;11.066;2023-02-21T00:54:48;11.30;99.90
23347;DHT22;36852;45.466;11.066;2023-02-21T00:57:35;11.20;99.90
23347;DHT22;36852;45.466;11.066;2023-02-21T01:00:23;11.20;99.90
23347;DHT22;36852;45.466;11.066;2023-02-21T01:03:13;11.10;99.90
23347;DHT22;36852;45.466;11.066;2023-02-21T01:05:59;11.10;99.90
23347;DHT22;36852;45.466;11.066;2023-02-21T01:08:46;11.10;99.90
23347;DHT22;36852;45.466;11.066;2023-02-21T01:11:36;11.10;99.90
23347;DHT22;36852;45.466;11.066;2023-02-21T01:14:25;11.10;99.90
23347;DHT22;36852;45.466;11.066;2023-02-21T01:17:11;11.10;99.90
23347;DHT22;36852;45.466;11.066;2023-02-21T01:19:59;11.00;99.90
23347;DHT22;36852;45.466;11.066;2023-02-21T01:22:46;10.90;99.90
23347;DHT22;36852;45.466;11.066;2023-02-21T01:25:31;10.90;99.90
23347;DHT22;36852;45.466;11.066;2023-02-21T01:28:19;10.90;99.90
23347;DHT22;36852;45.466;11.066;2023-02-21T01:31:08;10.90;99.90
23347;DHT22;36852;45.466;11.066;2023-02-21T01:33:57;10.80;99.90
23347;DHT22;36852;45.466;11.066;2023-02-21T01:36:46;10.70;99.90
23347;DHT22;36852;45.466;11.066;2023-02-21T01:39:32;10.60;99.90
23347;DHT22;36852;45.466;11.066;2023-02-21T01:42:19;10.60;99.90
23347;DHT22;36852;45.466;11.066;2023-02-21T01:48:14;10.50;99.90
23347;DHT22;36852;45.466;11.066;2023-02-21T01:51:04;10.50;99.90
23347;DHT22;36852;45.466;11.066;2023-02-21T01:53:52;10.50;99.90
23347;DHT22;36852;45.466;11.066;2023-02-21T01:56:39;10.40;99.90
23347;DHT22;36852;45.466;11.066;2023-02-21T01:59:25;10.40;99.90
23347;DHT22;36852;45.466;11.066;2023-02-21T02:02:22;10.40;99.90
23347;DHT22;36852;45.466;11.066;2023-02-21T02:05:09;10.40;99.90
23347;DHT22;36852;45.466;11.066;2023-02-21T02:07:56;10.40;99.90
23347;DHT22;36852;45.466;11.066;2023-02-21T02:10:44;10.40;99.90
23347;DHT22;36852;45.466;11.066;2023-02-21T02:13:50;10.40;99.90
23347;DHT22;36852;45.466;11.066;2023-02-21T02:25:02;10.30;99.90
23347;DHT22;36852;45.466;11.066;2023-02-21T02:33:29;10.30;99.90
23347;DHT22;36852;45.466;11.066;2023-02-21T02:46:49;10.30;99.90
23347;DHT22;36852;45.466;11.066;2023-02-21T02:49:26;10.30;99.90
23347;DHT22;36852;45.466;11.066;2023-02-21T02:51:51;10.20;99.90
23347;DHT22;36852;45.466;11.066;2023-02-21T02:54:21;10.20;99.90
23347;DHT22;36852;45.466;11.066;2023-02-21T02:56:48;10.20;99.90
23347;DHT22;36852;45.466;11.066;2023-02-21T03:07:58;10.10;99.90
23347;DHT22;36852;45.466;11.066;2023-02-21T03:13:16;10.20;99.90
23347;DHT22;36852;45.466;11.066;2023-02-21T03:16:16;10.10;99.90
23347;DHT22;36852;45.466;11.066;2023-02-21T03:18:49;10.10;99.90
23347;DHT22;36852;45.466;11.066;2023-02-21T03:21:20;10.10;99.90
23347;DHT22;36852;45.466;11.066;2023-02-21T03:23:51;10.00;99.90
23347;DHT22;36852;45.466;11.066;2023-02-21T03:26:20;10.00;99.90
23347;DHT22;36852;45.466;11.066;2023-02-21T03:28:50;9.90;99.90
23347;DHT22;36852;45.466;11.066;2023-02-21T03:31:23;9.90;99.90
23347;DHT22;36852;45.466;11.066;2023-02-21T03:33:52;9.80;99.90
23347;DHT22;36852;45.466;11.066;2023-02-21T03:39:03;9.80;99.90
23347;DHT22;36852;45.466;11.066;2023-02-21T03:41:32;9.80;99.90
23347;DHT22;36852;45.466;11.066;2023-02-21T03:44:00;9.80;99.90
23347;DHT22;36852;45.466;11.066;2023-02-21T03:46:29;9.80;99.90
23347;DHT22;36852;45.466;11.066;2023-02-21T03:51:40;9.80;99.90
23347;DHT22;36852;45.466;11.066;2023-02-21T03:54:11;9.80;99.90
23347;DHT22;36852;45.466;11.066;2023-02-21T03:57:00;9.80;99.90
23347;DHT22;36852;45.466;11.066;2023-02-21T03:59:30;9.80;99.90
23347;DHT22;36852;45.466;11.066;2023-02-21T04:01:58;9.80;99.90
23347;DHT22;36852;45.466;11.066;2023-02-21T04:04:28;9.80;99.90
23347;DHT22;36852;45.466;11.066;2023-02-21T04:06:58;9.80;99.90
23347;DHT22;36852;45.466;11.066;2023-02-21T04:09:26;9.80;99.90
23347;DHT22;36852;45.466;11.066;2023-02-21T04:11:57;9.80;99.90
23347;DHT22;36852;45.466;11.066;2023-02-21T04:14:26;9.80;99.90
23347;DHT22;36852;45.466;11.066;2023-02-21T04:16:56;9.80;99.90
23347;DHT22;36852;45.466;11.066;2023-02-21T04:19:24;9.80;99.90
23347;DHT22;36852;45.466;11.066;2023-02-21T04:21:52;9.70;99.90
23347;DHT22;36852;45.466;11.066;2023-02-21T04:24:20;9.70;99.90
23347;DHT22;36852;45.466;11.066;2023-02-21T04:26:48;9.70;99.90
23347;DHT22;36852;45.466;11.066;2023-02-21T04:29:16;9.70;99.90
23347;DHT22;36852;45.466;11.066;2023-02-21T04:31:44;9.70;99.90
23347;DHT22;36852;45.466;11.066;2023-02-21T04:34:14;9.70;99.90
23347;DHT22;36852;45.466;11.066;2023-02-21T04:36:43;9.70;99.90
23347;DHT22;36852;45.466;11.066;2023-02-21T04:39:12;9.70;99.90
23347;DHT22;36852;45.466;11.066;2023-02-21T04:41:40;9.60;99.90
23347;DHT22;36852;45.466;11.066;2023-02-21T04:44:08;9.50;99.90
23347;DHT22;36852;45.466;11.066;2023-02-21T04:46:36;9.40;99.90
23347;DHT22;36852;45.466;11.066;2023-02-21T04:49:04;9.40;99.90
23347;DHT22;36852;45.466;11.066;2023-02-21T04:51:32;9.40;99.90
23347;DHT22;36852;45.466;11.066;2023-02-21T04:54:00;9.30;99.90
23347;DHT22;36852;45.466;11.066;2023-02-21T04:56:28;9.30;99.90
23347;DHT22;36852;45.466;11.066;2023-02-21T04:58:57;9.30;99.90
23347;DHT22;36852;45.466;11.066;2023-02-21T05:01:29;9.30;99.90
23347;DHT22;36852;45.466;11.066;2023-02-21T05:03:58;9.30;99.90
23347;DHT22;36852;45.466;11.066;2023-02-21T05:06:27;9.30;99.90
23347;DHT22;36852;45.466;11.066;2023-02-21T05:08:59;9.30;99.90
23347;DHT22;36852;45.466;11.066;2023-02-21T05:11:27;9.30;99.90
23347;DHT22;36852;45.466;11.066;2023-02-21T05:13:55;9.30;99.90
23347;DHT22;36852;45.466;11.066;2023-02-21T05:16:23;9.30;99.90
23347;DHT22;36852;45.466;11.066;2023-02-21T05:18:52;9.30;99.90
23347;DHT22;36852;45.466;11.066;2023-02-21T05:21:20;9.20;99.90
23347;DHT22;36852;45.466;11.066;2023-02-21T05:23:48;9.20;99.90
23347;DHT22;36852;45.466;11.066;2023-02-21T05:26:26;9.20;99.90
23347;DHT22;36852;45.466;11.066;2023-02-21T05:28:56;9.20;99.90
23347;DHT22;36852;45.466;11.066;2023-02-21T05:31:28;9.20;99.90
23347;DHT22;36852;45.466;11.066;2023-02-21T05:33:57;9.20;99.90
23347;DHT22;36852;45.466;11.066;2023-02-21T05:36:24;9.20;99.90
23347;DHT22;36852;45.466;11.066;2023-02-21T05:38:54;9.20;99.90
23347;DHT22;36852;45.466;11.066;2023-02-21T05:41:23;9.20;99.90
23347;DHT22;36852;45.466;11.066;2023-02-21T05:43:52;9.20;99.90
23347;DHT22;36852;45.466;11.066;2023-02-21T05:46:22;9.20;99.90
23347;DHT22;36852;45.466;11.066;2023-02-21T05:48:53;9.20;99.90
23347;DHT22;36852;45.466;11.066;2023-02-21T05:51:22;9.20;99.90
23347;DHT22;36852;45.466;11.066;2023-02-21T05:53:50;9.20;99.90
23347;DHT22;36852;45.466;11.066;2023-02-21T05:56:19;9.10;99.90
23347;DHT22;36852;45.466;11.066;2023-02-21T05:58:48;9.10;99.90
23347;DHT22;36852;45.466;11.066;2023-02-21T06:01:16;9.10;99.90
23347;DHT22;36852;45.466;11.066;2023-02-21T06:03:44;9.00;99.90
23347;DHT22;36852;45.466;11.066;2023-02-21T06:06:33;9.00;99.90
23347;DHT22;36852;45.466;11.066;2023-02-21T06:09:02;9.00;99.90
23347;DHT22;36852;45.466;11.066;2023-02-21T06:11:33;9.00;99.90
23347;DHT22;36852;45.466;11.066;2023-02-21T06:14:03;9.00;99.90
23347;DHT22;36852;45.466;11.066;2023-02-21T06:16:33;9.00;99.90
23347;DHT22;36852;45.466;11.066;2023-02-21T06:19:02;9.00;99.90
23347;DHT22;36852;45.466;11.066;2023-02-21T06:21:31;9.00;99.90
23347;DHT22;36852;45.466;11.066;2023-02-21T06:24:02;9.00;99.90
23347;DHT22;36852;45.466;11.066;2023-02-21T06:26:31;8.90;99.90
23347;DHT22;36852;45.466;11.066;2023-02-21T06:29:00;9.00;99.90
23347;DHT22;36852;45.466;11.066;2023-02-21T06:31:29;9.00;99.90
23347;DHT22;36852;45.466;11.066;2023-02-21T06:33:58;9.00;99.90
23347;DHT22;36852;45.466;11.066;2023-02-21T06:36:28;9.00;99.90
23347;DHT22;36852;45.466;11.066;2023-02-21T06:38:56;9.00;99.90
23347;DHT22;36852;45.466;11.066;2023-02-21T06:41:27;9.00;99.90
23347;DHT22;36852;45.466;11.066;2023-02-21T06:43:57;8.90;99.90
23347;DHT22;36852;45.466;11.066;2023-02-21T06:51:51;9.10;99.90
23347;DHT22;36852;45.466;11.066;2023-02-21T06:54:20;9.10;99.90
23347;DHT22;36852;45.466;11.066;2023-02-21T06:56:47;9.10;99.90
23347;DHT22;36852;45.466;11.066;2023-02-21T06:59:15;9.10;99.90
23347;DHT22;36852;45.466;11.066;2023-02-21T07:01:43;9.10;99.90
23347;DHT22;36852;45.466;11.066;2023-02-21T07:04:11;9.10;99.90
23347;DHT22;36852;45.466;11.066;2023-02-21T07:06:39;9.20;99.90
23347;DHT22;36852;45.466;11.066;2023-02-21T07:09:08;9.10;99.90
23347;DHT22;36852;45.466;11.066;2023-02-21T07:11:36;9.20;99.90
23347;DHT22;36852;45.466;11.066;2023-02-21T07:14:12;9.20;99.90
23347;DHT22;36852;45.466;11.066;2023-02-21T07:16:41;9.20;99.90
23347;DHT22;36852;45.466;11.066;2023-02-21T07:19:10;9.20;99.90
23347;DHT22;36852;45.466;11.066;2023-02-21T07:21:40;9.30;99.90
23347;DHT22;36852;45.466;11.066;2023-02-21T07:24:10;9.30;99.90
23347;DHT22;36852;45.466;11.066;2023-02-21T07:26:38;9.30;99.90
23347;DHT22;36852;45.466;11.066;2023-02-21T07:29:06;9.30;99.90
23347;DHT22;36852;45.466;11.066;2023-02-21T07:31:33;9.40;99.90
23347;DHT22;36852;45.466;11.066;2023-02-21T07:34:01;9.40;99.90
23347;DHT22;36852;45.466;11.066;2023-02-21T07:36:30;9.40;99.90
23347;DHT22;36852;45.466;11.066;2023-02-21T07:38:58;9.50;99.90
23347;DHT22;36852;45.466;11.066;2023-02-21T07:41:27;9.50;99.90
23347;DHT22;36852;45.466;11.066;2023-02-21T07:43:55;9.60;99.90
23347;DHT22;36852;45.466;11.066;2023-02-21T07:46:27;9.60;99.90
23347;DHT22;36852;45.466;11.066;2023-02-21T07:51:39;9.60;99.90
23347;DHT22;36852;45.466;11.066;2023-02-21T07:54:07;9.60;99.90
23347;DHT22;36852;45.466;11.066;2023-02-21T07:56:35;9.70;99.90
23347;DHT22;36852;45.466;11.066;2023-02-21T07:59:03;9.70;99.90
23347;DHT22;36852;45.466;11.066;2023-02-21T08:01:36;9.80;99.90
23347;DHT22;36852;45.466;11.066;2023-02-21T08:04:04;9.80;99.90
23347;DHT22;36852;45.466;11.066;2023-02-21T08:06:35;9.90;99.90
23347;DHT22;36852;45.466;11.066;2023-02-21T08:09:03;9.90;99.90
23347;DHT22;36852;45.466;11.066;2023-02-21T08:11:32;10.00;99.90
23347;DHT22;36852;45.466;11.066;2023-02-21T08:14:03;10.00;99.90
23347;DHT22;36852;45.466;11.066;2023-02-21T08:16:30;10.10;99.90
23347;DHT22;36852;45.466;11.066;2023-02-21T08:19:01;10.10;99.90
23347;DHT22;36852;45.466;11.066;2023-02-21T08:21:29;10.20;99.90
23347;DHT22;36852;45.466;11.066;2023-02-21T08:23:57;10.20;99.90
23347;DHT22;36852;45.466;11.066;2023-02-21T08:26:26;10.20;99.90
23347;DHT22;36852;45.466;11.066;2023-02-21T08:28:54;10.30;99.90
23347;DHT22;36852;45.466;11.066;2023-02-21T08:31:22;10.40;99.90
23347;DHT22;36852;45.466;11.066;2023-02-21T08:33:50;10.40;99.90
23347;DHT22;36852;45.466;11.066;2023-02-21T08:36:29;10.40;99.90
23347;DHT22;36852;45.466;11.066;2023-02-21T08:38:54;10.50;99.90
23347;DHT22;36852;45.466;11.066;2023-02-21T08:41:22;10.60;99.90
23347;DHT22;36852;45.466;11.066;2023-02-21T08:43:50;10.60;99.90
23347;DHT22;36852;45.466;11.066;2023-02-21T08:46:19;10.70;99.90
23347;DHT22;36852;45.466;11.066;2023-02-21T08:48:47;10.70;99.90
23347;DHT22;36852;45.466;11.066;2023-02-21T08:51:15;10.80;99.90
23347;DHT22;36852;45.466;11.066;2023-02-21T08:53:43;10.80;99.90
23347;DHT22;36852;45.466;11.066;2023-02-21T08:56:11;10.90;99.90
23347;DHT22;36852;45.466;11.066;2023-02-21T08:59:01;10.90;99.90
23347;DHT22;36852;45.466;11.066;2023-02-21T09:01:33;11.00;99.90
23347;DHT22;36852;45.466;11.066;2023-02-21T09:04:02;11.00;99.90
23347;DHT22;36852;45.466;11.066;2023-02-21T09:06:31;11.00;99.90
23347;DHT22;36852;45.466;11.066;2023-02-21T09:08:59;11.10;99.90
23347;DHT22;36852;45.466;11.066;2023-02-21T09:11:27;11.20;99.90
23347;DHT22;36852;45.466;11.066;2023-02-21T09:13:55;11.30;99.90
23347;DHT22;36852;45.466;11.066;2023-02-21T09:16:23;11.30;99.90
23347;DHT22;36852;45.466;11.066;2023-02-21T09:18:58;11.40;99.90
23347;DHT22;36852;45.466;11.066;2023-02-21T09:21:27;11.50;99.90
23347;DHT22;36852;45.466;11.066;2023-02-21T09:23:56;11.50;99.90
23347;DHT22;36852;45.466;11.066;2023-02-21T09:26:25;11.60;99.90
23347;DHT22;36852;45.466;11.066;2023-02-21T09:28:57;11.70;99.90
23347;DHT22;36852;45.466;11.066;2023-02-21T09:31:25;11.70;99.90
23347;DHT22;36852;45.466;11.066;2023-02-21T09:33:53;11.80;99.90
23347;DHT22;36852;45.466;11.066;2023-02-21T09:36:22;11.80;99.90
23347;DHT22;36852;45.466;11.066;2023-02-21T09:38:50;11.90;99.90
23347;DHT22;36852;45.466;11.066;2023-02-21T09:41:19;12.00;99.90
23347;DHT22;36852;45.466;11.066;2023-02-21T09:43:50;12.00;99.90
23347;DHT22;36852;45.466;11.066;2023-02-21T09:46:28;12.00;99.90
23347;DHT22;36852;45.466;11.066;2023-02-21T09:48:54;12.10;99.90
23347;DHT22;36852;45.466;11.066;2023-02-21T12:17:42;14.30;99.90
23347;DHT22;36852;45.466;11.066;2023-02-21T12:20:30;15.30;99.90
23347;DHT22;36852;45.466;11.066;2023-02-21T12:28:52;15.60;99.90
23347;DHT22;36852;45.466;11.066;2023-02-21T12:31:40;15.70;99.90
23347;DHT22;36852;45.466;11.066;2023-02-21T12:37:20;15.90;99.90
23347;DHT22;36852;45.466;11.066;2023-02-21T12:40:12;16.00;99.90
23347;DHT22;36852;45.466;11.066;2023-02-21T12:42:46;16.10;99.90
23347;DHT22;36852;45.466;11.066;2023-02-21T12:47:49;16.40;99.90
23347;DHT22;36852;45.466;11.066;2023-02-21T12:50:23;16.50;99.90
23347;DHT22;36852;45.466;11.066;2023-02-21T12:52:57;16.70;99.90
23347;DHT22;36852;45.466;11.066;2023-02-21T12:55:39;16.70;99.90
23347;DHT22;36852;45.466;11.066;2023-02-21T12:58:30;16.90;99.90
23347;DHT22;36852;45.466;11.066;2023-02-21T13:01:06;17.10;99.90
23347;DHT22;36852;45.466;11.066;2023-02-21T13:03:51;17.30;99.90
23347;DHT22;36852;45.466;11.066;2023-02-21T13:12:06;17.80;99.90
23347;DHT22;36852;45.466;11.066;2023-02-21T13:14:38;18.00;99.90
23347;DHT22;36852;45.466;11.066;2023-02-21T13:17:11;18.20;99.90
23347;DHT22;36852;45.466;11.066;2023-02-21T13:19:52;18.50;99.90
23347;DHT22;36852;45.466;11.066;2023-02-21T13:22:38;18.70;99.90
23347;DHT22;36852;45.466;11.066;2023-02-21T13:28:38;18.50;99.90
23347;DHT22;36852;45.466;11.066;2023-02-21T13:31:20;18.50;99.90
23347;DHT22;36852;45.466;11.066;2023-02-21T13:33:51;18.50;99.90
23347;DHT22;36852;45.466;11.066;2023-02-21T13:36:28;18.50;99.90
23347;DHT22;36852;45.466;11.066;2023-02-21T13:42:07;18.60;99.90
23347;DHT22;36852;45.466;11.066;2023-02-21T13:44:39;18.70;99.90
23347;DHT22;36852;45.466;11.066;2023-02-21T13:52:35;18.90;99.90
23347;DHT22;36852;45.466;11.066;2023-02-21T14:02:59;19.40;99.90
23347;DHT22;36852;45.466;11.066;2023-02-21T14:13:48;19.80;98.80
23347;DHT22;36852;45.466;11.066;2023-02-21T14:21:44;19.90;98.60
23347;DHT22;36852;45.466;11.066;2023-02-21T14:24:15;20.10;97.70
23347;DHT22;36852;45.466;11.066;2023-02-21T14:27:01;20.20;96.80
23347;DHT22;36852;45.466;11.066;2023-02-21T14:29:39;20.20;96.90
23347;DHT22;36852;45.466;11.066;2023-02-21T14:48:16;20.30;95.20
23347;DHT22;36852;45.466;11.066;2023-02-21T15:05:15;18.30;99.40
23347;DHT22;36852;45.466;11.066;2023-02-21T15:12:56;17.60;99.90
23347;DHT22;36852;45.466;11.066;2023-02-21T15:15:33;17.40;99.90
23347;DHT22;36852;45.466;11.066;2023-02-21T15:18:11;17.30;99.90
23347;DHT22;36852;45.466;11.066;2023-02-21T15:20:41;17.10;99.90
23347;DHT22;36852;45.466;11.066;2023-02-21T15:23:20;17.00;99.90
23347;DHT22;36852;45.466;11.066;2023-02-21T15:25:55;16.80;99.90
23347;DHT22;36852;45.466;11.066;2023-02-21T15:28:29;16.70;99.90
23347;DHT22;36852;45.466;11.066;2023-02-21T15:31:06;16.60;99.90
23347;DHT22;36852;45.466;11.066;2023-02-21T15:33:38;16.40;99.90
23347;DHT22;36852;45.466;11.066;2023-02-21T15:39:00;16.30;99.90
23347;DHT22;36852;45.466;11.066;2023-02-21T15:41:37;16.20;99.90
23347;DHT22;36852;45.466;11.066;2023-02-21T15:44:10;16.10;99.90
23347;DHT22;36852;45.466;11.066;2023-02-21T15:49:23;15.90;99.90
23347;DHT22;36852;45.466;11.066;2023-02-21T15:51:47;15.90;99.90
23347;DHT22;36852;45.466;11.066;2023-02-21T15:54:27;15.80;99.90
23347;DHT22;36852;45.466;11.066;2023-02-21T15:57:04;15.80;99.90
23347;DHT22;36852;45.466;11.066;2023-02-21T15:59:34;15.70;99.90
23347;DHT22;36852;45.466;11.066;2023-02-21T16:04:44;15.60;99.90
23347;DHT22;36852;45.466;11.066;2023-02-21T16:07:22;15.50;99.90
23347;DHT22;36852;45.466;11.066;2023-02-21T16:09:49;15.50;99.90
23347;DHT22;36852;45.466;11.066;2023-02-21T16:12:25;15.40;99.90
23347;DHT22;36852;45.466;11.066;2023-02-21T16:15:02;15.40;99.90
23347;DHT22;36852;45.466;11.066;2023-02-21T16:17:32;15.40;99.90
23347;DHT22;36852;45.466;11.066;2023-02-21T16:20:19;15.30;99.90
23347;DHT22;36852;45.466;11.066;2023-02-21T16:22:50;15.30;99.90
23347;DHT22;36852;45.466;11.066;2023-02-21T16:25:22;15.30;99.90
23347;DHT22;36852;45.466;11.066;2023-02-21T16:27:53;15.20;99.90
23347;DHT22;36852;45.466;11.066;2023-02-21T16:30:29;15.20;99.90
23347;DHT22;36852;45.466;11.066;2023-02-21T16:32:59;15.10;99.90
23347;DHT22;36852;45.466;11.066;2023-02-21T16:35:28;15.10;99.90
23347;DHT22;36852;45.466;11.066;2023-02-21T16:37:58;15.10;99.90
23347;DHT22;36852;45.466;11.066;2023-02-21T16:40:30;15.10;99.90
23347;DHT22;36852;45.466;11.066;2023-02-21T16:42:59;15.10;99.90
23347;DHT22;36852;45.466;11.066;2023-02-21T16:45:30;15.00;99.90
23347;DHT22;36852;45.466;11.066;2023-02-21T16:48:05;15.00;99.90
23347;DHT22;36852;45.466;11.066;2023-02-21T16:50:36;15.00;99.90
23347;DHT22;36852;45.466;11.066;2023-02-21T16:53:01;15.00;99.90
23347;DHT22;36852;45.466;11.066;2023-02-21T16:55:30;15.00;99.90
23347;DHT22;36852;45.466;11.066;2023-02-21T16:58:07;15.00;99.90
23347;DHT22;36852;45.466;11.066;2023-02-21T17:00:35;14.90;99.90
23347;DHT22;36852;45.466;11.066;2023-02-21T17:03:04;14.90;99.90
23347;DHT22;36852;45.466;11.066;2023-02-21T17:05:32;14.90;99.90
23347;DHT22;36852;45.466;11.066;2023-02-21T17:08:03;14.80;99.90
23347;DHT22;36852;45.466;11.066;2023-02-21T17:10:31;14.80;99.90
23347;DHT22;36852;45.466;11.066;2023-02-21T17:13:02;14.70;99.90
23347;DHT22;36852;45.466;11.066;2023-02-21T17:15:30;14.70;99.90
23347;DHT22;36852;45.466;11.066;2023-02-21T17:18:00;14.70;99.90
23347;DHT22;36852;45.466;11.066;2023-02-21T17:20:28;14.60;99.90
23347;DHT22;36852;45.466;11.066;2023-02-21T17:22:57;14.70;99.90
23347;DHT22;36852;45.466;11.066;2023-02-21T17:25:27;14.60;99.90
23347;DHT22;36852;45.466;11.066;2023-02-21T17:27:56;14.70;99.90
23347;DHT22;36852;45.466;11.066;2023-02-21T17:30:25;14.60;99.90
23347;DHT22;36852;45.466;11.066;2023-02-21T17:32:53;14.60;99.90
23347;DHT22;36852;45.466;11.066;2023-02-21T17:35:21;14.60;99.90
23347;DHT22;36852;45.466;11.066;2023-02-21T17:37:50;14.60;99.90
23347;DHT22;36852;45.466;11.066;2023-02-21T17:40:20;14.50;99.90
23347;DHT22;36852;45.466;11.066;2023-02-21T17:42:49;14.60;99.90
23347;DHT22;36852;45.466;11.066;2023-02-21T17:45:20;14.50;99.90
23347;DHT22;36852;45.466;11.066;2023-02-21T17:47:49;14.50;99.90
23347;DHT22;36852;45.466;11.066;2023-02-21T17:50:17;14.50;99.90
23347;DHT22;36852;45.466;11.066;2023-02-21T17:52:45;14.50;99.90
23347;DHT22;36852;45.466;11.066;2023-02-21T17:55:20;14.40;99.90
23347;DHT22;36852;45.466;11.066;2023-02-21T17:57:48;14.50;99.90
23347;DHT22;36852;45.466;11.066;2023-02-21T18:00:25;14.50;99.90
23347;DHT22;36852;45.466;11.066;2023-02-21T18:02:55;14.40;99.90
23347;DHT22;36852;45.466;11.066;2023-02-21T18:05:25;14.40;99.90
23347;DHT22;36852;45.466;11.066;2023-02-21T18:07:56;14.40;99.90
23347;DHT22;36852;45.466;11.066;2023-02-21T18:10:25;14.40;99.90
23347;DHT22;36852;45.466;11.066;2023-02-21T18:12:53;14.40;99.90
23347;DHT22;36852;45.466;11.066;2023-02-21T18:15:24;14.40;99.90
23347;DHT22;36852;45.466;11.066;2023-02-21T18:17:54;14.40;99.90
23347;DHT22;36852;45.466;11.066;2023-02-21T18:20:22;14.30;99.90
23347;DHT22;36852;45.466;11.066;2023-02-21T18:22:51;14.30;99.90
23347;DHT22;36852;45.466;11.066;2023-02-21T18:25:19;14.40;99.90
23347;DHT22;36852;45.466;11.066;2023-02-21T18:27:49;14.30;99.90
23347;DHT22;36852;45.466;11.066;2023-02-21T18:30:18;14.40;99.90
23347;DHT22;36852;45.466;11.066;2023-02-21T18:32:49;14.30;99.90
23347;DHT22;36852;45.466;11.066;2023-02-21T18:35:17;14.30;99.90
23347;DHT22;36852;45.466;11.066;2023-02-21T18:37:45;14.20;99.90
23347;DHT22;36852;45.466;11.066;2023-02-21T18:40:14;14.20;99.90
23347;DHT22;36852;45.466;11.066;2023-02-21T18:42:43;14.30;99.90
23347;DHT22;36852;45.466;11.066;2023-02-21T18:45:11;14.20;99.90
23347;DHT22;36852;45.466;11.066;2023-02-21T18:47:40;14.20;99.90
23347;DHT22;36852;45.466;11.066;2023-02-21T18:50:08;14.20;99.90
23347;DHT22;36852;45.466;11.066;2023-02-21T18:52:37;14.20;99.90
23347;DHT22;36852;45.466;11.066;2023-02-21T18:55:05;14.20;99.90
23347;DHT22;36852;45.466;11.066;2023-02-21T18:57:33;14.20;99.90
23347;DHT22;36852;45.466;11.066;2023-02-21T19:00:03;14.20;99.90
23347;DHT22;36852;45.466;11.066;2023-02-21T19:02:33;14.20;99.90
23347;DHT22;36852;45.466;11.066;2023-02-21T19:05:01;14.20;99.90
23347;DHT22;36852;45.466;11.066;2023-02-21T19:07:29;14.20;99.90
23347;DHT22;36852;45.466;11.066;2023-02-21T19:09:59;14.20;99.90
23347;DHT22;36852;45.466;11.066;2023-02-21T19:12:27;14.20;99.90
23347;DHT22;36852;45.466;11.066;2023-02-21T19:14:57;14.20;99.90
23347;DHT22;36852;45.466;11.066;2023-02-21T19:17:24;14.30;99.90
23347;DHT22;36852;45.466;11.066;2023-02-21T19:19:53;14.30;99.90
23347;DHT22;36852;45.466;11.066;2023-02-21T19:22:22;14.20;99.90
23347;DHT22;36852;45.466;11.066;2023-02-21T19:24:50;14.20;99.90
23347;DHT22;36852;45.466;11.066;2023-02-21T19:27:18;14.10;99.90
23347;DHT22;36852;45.466;11.066;2023-02-21T19:29:47;14.10;99.90
23347;DHT22;36852;45.466;11.066;2023-02-21T19:32:15;14.10;99.90
23347;DHT22;36852;45.466;11.066;2023-02-21T19:34:46;14.00;99.90
23347;DHT22;36852;45.466;11.066;2023-02-21T19:37:16;14.00;99.90
23347;DHT22;36852;45.466;11.066;2023-02-21T19:39:45;14.00;99.90
23347;DHT22;36852;45.466;11.066;2023-02-21T19:42:13;14.00;99.90
23347;DHT22;36852;45.466;11.066;2023-02-21T19:44:41;14.00;99.90
23347;DHT22;36852;45.466;11.066;2023-02-21T19:47:10;14.10;99.90
23347;DHT22;36852;45.466;11.066;2023-02-21T19:49:39;14.10;99.90
23347;DHT22;36852;45.466;11.066;2023-02-21T19:52:10;14.10;99.90
23347;DHT22;36852;45.466;11.066;2023-02-21T19:54:38;14.10;99.90
23347;DHT22;36852;45.466;11.066;2023-02-21T19:57:06;14.10;99.90
23347;DHT22;36852;45.466;11.066;2023-02-21T19:59:35;14.10;99.90
23347;DHT22;36852;45.466;11.066;2023-02-21T20:02:03;14.10;99.90
23347;DHT22;36852;45.466;11.066;2023-02-21T20:04:31;14.10;99.90
23347;DHT22;36852;45.466;11.066;2023-02-21T20:07:00;14.00;99.90
23347;DHT22;36852;45.466;11.066;2023-02-21T20:09:28;14.00;99.90
23347;DHT22;36852;45.466;11.066;2023-02-21T20:11:56;14.00;99.90
23347;DHT22;36852;45.466;11.066;2023-02-21T20:14:25;14.00;99.90
23347;DHT22;36852;45.466;11.066;2023-02-21T20:16:54;13.90;99.90
23347;DHT22;36852;45.466;11.066;2023-02-21T20:19:25;13.90;99.90
23347;DHT22;36852;45.466;11.066;2023-02-21T20:21:55;13.90;99.90
23347;DHT22;36852;45.466;11.066;2023-02-21T20:24:23;13.90;99.90
23347;DHT22;36852;45.466;11.066;2023-02-21T20:26:53;13.80;99.90
23347;DHT22;36852;45.466;11.066;2023-02-21T20:29:21;13.90;99.90
23347;DHT22;36852;45.466;11.066;2023-02-21T20:31:49;13.80;99.90
23347;DHT22;36852;45.466;11.066;2023-02-21T20:34:18;13.80;99.90
23347;DHT22;36852;45.466;11.066;2023-02-21T20:36:46;13.80;99.90
23347;DHT22;36852;45.466;11.066;2023-02-21T20:39:22;13.80;99.90
23347;DHT22;36852;45.466;11.066;2023-02-21T20:41:46;13.80;99.90
23347;DHT22;36852;45.466;11.066;2023-02-21T20:44:16;13.80;99.90
23347;DHT22;36852;45.466;11.066;2023-02-21T20:46:44;13.80;99.90
23347;DHT22;36852;45.466;11.066;2023-02-21T20:49:15;13.80;99.90
23347;DHT22;36852;45.466;11.066;2023-02-21T20:51:47;13.80;99.90